PWSweather.com
Personal Weather Stations
Station Observations
WD4JKH
Forsyth, GA 31029

Forsyth, GA 31029

Lat: 33.033225, Lon: -83.927995

Elevation: 709

Station Type: Davis Vantage VUE

High Low Average
Temperature 83.6°F28.7°C 63.3°F17.4°C 73.1°F22.8°C
Dew Point 68.4°F20.2°C 59.3°F15.2°C 63.3°F17.4°C
Winds 6.0 mph 9.7 kmh Calm Calm 2.0 mph SSE3.2 kmh SSE
Wind Gusts 13.0 mph20.9 kmh -- 7.0 mph11.3 kmh
Humidity 97% 46% 73%
Pressure 30.04 in1017.3 mb 29.85 in1010.8 mb -
Precipitation 0.00 in0.0 mm - -
Hour Temp Dew Point Humidity Winds Wind Gusts Pressure Precip Precip Rate Daily Precip Total
12:02 AM 66.7°F19.3°C 60.4°F15.8°C 80% Calm Calm -- 30.00 in1015.9 mb 0.00 in0.0 mm 0.00 in0.0 mm 0.00 in0.0 mm
12:07 AM 66.8°F19.3°C 60.2°F15.7°C 79% Calm Calm -- 29.99 in1015.6 mb 0.00 in0.0 mm 0.00 in0.0 mm 0.00 in0.0 mm
12:12 AM 66.9°F19.4°C 59.9°F15.5°C 78% Calm Calm -- 30.00 in1015.9 mb 0.00 in0.0 mm 0.00 in0.0 mm 0.00 in0.0 mm
12:17 AM 67.6°F19.8°C 59.9°F15.5°C 76% 1.3 mph NW2.1 kmh NW 2.0 mph3.2 kmh 30.00 in1015.9 mb 0.00 in0.0 mm 0.00 in0.0 mm 0.00 in0.0 mm
12:22 AM 68.0°F20.0°C 59.9°F15.5°C 75% 1.1 mph NW1.8 kmh NW 2.0 mph3.2 kmh 30.00 in1015.9 mb 0.00 in0.0 mm 0.00 in0.0 mm 0.00 in0.0 mm
12:27 AM 68.2°F20.1°C 60.1°F15.6°C 75% 1.6 mph NW2.6 kmh NW 3.0 mph4.8 kmh 30.00 in1015.9 mb 0.00 in0.0 mm 0.00 in0.0 mm 0.00 in0.0 mm
12:32 AM 68.3°F20.2°C 60.2°F15.7°C 75% 1.0 mph NW1.6 kmh NW 3.0 mph4.8 kmh 30.00 in1015.9 mb 0.00 in0.0 mm 0.00 in0.0 mm 0.00 in0.0 mm
12:37 AM 68.1°F20.1°C 60.0°F15.6°C 75% 1.0 mph NW1.6 kmh NW 3.0 mph4.8 kmh 30.00 in1015.9 mb 0.00 in0.0 mm 0.00 in0.0 mm 0.00 in0.0 mm
12:42 AM 68.2°F20.1°C 59.7°F15.4°C 74% 1.4 mph NW2.3 kmh NW 3.0 mph4.8 kmh 30.00 in1015.9 mb 0.00 in0.0 mm 0.00 in0.0 mm 0.00 in0.0 mm
12:47 AM 68.2°F20.1°C 59.7°F15.4°C 74% 1.3 mph NW2.1 kmh NW 2.0 mph3.2 kmh 30.00 in1015.9 mb 0.00 in0.0 mm 0.00 in0.0 mm 0.00 in0.0 mm
12:52 AM 68.2°F20.1°C 59.7°F15.4°C 74% 1.5 mph NW2.4 kmh NW 3.0 mph4.8 kmh 30.00 in1015.9 mb 0.00 in0.0 mm 0.00 in0.0 mm 0.00 in0.0 mm
12:57 AM 68.2°F20.1°C 59.7°F15.4°C 74% 1.5 mph NW2.4 kmh NW 3.0 mph4.8 kmh 30.00 in1015.9 mb 0.00 in0.0 mm 0.00 in0.0 mm 0.00 in0.0 mm
01:02 AM 68.2°F20.1°C 59.7°F15.4°C 74% 1.0 mph NW1.6 kmh NW 3.0 mph4.8 kmh 30.00 in1015.9 mb 0.00 in0.0 mm 0.00 in0.0 mm 0.00 in0.0 mm
01:07 AM 68.0°F20.0°C 59.9°F15.5°C 75% 1.0 mph NW1.6 kmh NW 3.0 mph4.8 kmh 30.00 in1015.9 mb 0.00 in0.0 mm 0.00 in0.0 mm 0.00 in0.0 mm
01:12 AM 67.6°F19.8°C 59.9°F15.5°C 76% 1.0 mph NW1.6 kmh NW 3.0 mph4.8 kmh 30.00 in1015.9 mb 0.00 in0.0 mm 0.00 in0.0 mm 0.00 in0.0 mm
01:17 AM 67.2°F19.6°C 59.9°F15.5°C 77% Calm Calm 2.0 mph3.2 kmh 30.00 in1015.9 mb 0.00 in0.0 mm 0.00 in0.0 mm 0.00 in0.0 mm
01:22 AM 66.8°F19.3°C 59.8°F15.4°C 78% Calm Calm 2.0 mph3.2 kmh 30.00 in1015.9 mb 0.00 in0.0 mm 0.00 in0.0 mm 0.00 in0.0 mm
01:27 AM 66.5°F19.2°C 60.2°F15.7°C 80% 1.0 mph NW1.6 kmh NW 1.0 mph1.6 kmh 30.00 in1015.9 mb 0.00 in0.0 mm 0.00 in0.0 mm 0.00 in0.0 mm
01:32 AM 66.1°F18.9°C 60.2°F15.7°C 81% 1.2 mph NNE1.9 kmh NNE 2.0 mph3.2 kmh 30.00 in1015.9 mb 0.00 in0.0 mm 0.00 in0.0 mm 0.00 in0.0 mm
01:37 AM 65.5°F18.6°C 60.2°F15.7°C 83% 3.9 mph E6.3 kmh E 7.0 mph11.3 kmh 30.00 in1015.9 mb 0.00 in0.0 mm 0.00 in0.0 mm 0.00 in0.0 mm
01:42 AM 64.9°F18.3°C 60.0°F15.6°C 84% 1.0 mph E1.6 kmh E 7.0 mph11.3 kmh 30.00 in1015.9 mb 0.00 in0.0 mm 0.00 in0.0 mm 0.00 in0.0 mm
01:47 AM 64.6°F18.1°C 60.0°F15.6°C 85% 3.3 mph E5.3 kmh E 7.0 mph11.3 kmh 30.00 in1015.9 mb 0.00 in0.0 mm 0.00 in0.0 mm 0.00 in0.0 mm
01:52 AM 64.0°F17.8°C 59.7°F15.4°C 86% 1.0 mph ESE1.6 kmh ESE 7.0 mph11.3 kmh 29.99 in1015.6 mb 0.00 in0.0 mm 0.00 in0.0 mm 0.00 in0.0 mm
01:57 AM 63.7°F17.6°C 59.8°F15.4°C 87% Calm Calm 5.0 mph8.0 kmh 29.99 in1015.6 mb 0.00 in0.0 mm 0.00 in0.0 mm 0.00 in0.0 mm
02:02 AM 63.5°F17.5°C 59.9°F15.5°C 88% 1.0 mph ESE1.6 kmh ESE 5.0 mph8.0 kmh 29.99 in1015.6 mb 0.00 in0.0 mm 0.00 in0.0 mm 0.00 in0.0 mm
02:07 AM 63.3°F17.4°C 60.0°F15.6°C 89% Calm Calm 4.0 mph6.4 kmh 29.98 in1015.2 mb 0.00 in0.0 mm 0.00 in0.0 mm 0.00 in0.0 mm
02:12 AM 63.3°F17.4°C 60.0°F15.6°C 89% 1.0 mph ESE1.6 kmh ESE 1.0 mph1.6 kmh 29.98 in1015.2 mb 0.00 in0.0 mm 0.00 in0.0 mm 0.00 in0.0 mm
02:17 AM 63.3°F17.4°C 60.0°F15.6°C 89% 1.8 mph E2.9 kmh E 4.0 mph6.4 kmh 29.98 in1015.2 mb 0.00 in0.0 mm 0.00 in0.0 mm 0.00 in0.0 mm
02:22 AM 63.3°F17.4°C 60.0°F15.6°C 89% Calm Calm 4.0 mph6.4 kmh 29.98 in1015.2 mb 0.00 in0.0 mm 0.00 in0.0 mm 0.00 in0.0 mm
02:27 AM 63.7°F17.6°C 60.4°F15.8°C 89% 1.4 mph E2.3 kmh E 4.0 mph6.4 kmh 29.98 in1015.2 mb 0.00 in0.0 mm 0.00 in0.0 mm 0.00 in0.0 mm
02:32 AM 64.0°F17.8°C 60.4°F15.8°C 88% 1.0 mph E1.6 kmh E 4.0 mph6.4 kmh 29.98 in1015.2 mb 0.00 in0.0 mm 0.00 in0.0 mm 0.00 in0.0 mm
02:37 AM 64.0°F17.8°C 60.4°F15.8°C 88% 1.0 mph E1.6 kmh E 2.0 mph3.2 kmh 29.97 in1014.9 mb 0.00 in0.0 mm 0.00 in0.0 mm 0.00 in0.0 mm
02:42 AM 64.1°F17.8°C 60.1°F15.6°C 87% 1.0 mph E1.6 kmh E 3.0 mph4.8 kmh 29.97 in1014.9 mb 0.00 in0.0 mm 0.00 in0.0 mm 0.00 in0.0 mm
02:47 AM 64.3°F17.9°C 60.3°F15.7°C 87% Calm Calm 3.0 mph4.8 kmh 29.97 in1014.9 mb 0.00 in0.0 mm 0.00 in0.0 mm 0.00 in0.0 mm
02:52 AM 64.4°F18.0°C 60.1°F15.6°C 86% 1.4 mph E2.3 kmh E 3.0 mph4.8 kmh 29.97 in1014.9 mb 0.00 in0.0 mm 0.00 in0.0 mm 0.00 in0.0 mm
02:57 AM 64.8°F18.2°C 60.5°F15.8°C 86% Calm Calm 3.0 mph4.8 kmh 29.97 in1014.9 mb 0.00 in0.0 mm 0.00 in0.0 mm 0.00 in0.0 mm
03:01 AM 64.8°F18.2°C 60.5°F15.8°C 86% Calm Calm 2.0 mph3.2 kmh 29.97 in1014.9 mb 0.00 in0.0 mm 0.00 in0.0 mm 0.00 in0.0 mm
03:06 AM 64.8°F18.2°C 60.5°F15.8°C 86% Calm Calm 2.0 mph3.2 kmh 29.97 in1014.9 mb 0.00 in0.0 mm 0.00 in0.0 mm 0.00 in0.0 mm
03:11 AM 64.7°F18.2°C 60.4°F15.8°C 86% Calm Calm 1.0 mph1.6 kmh 29.97 in1014.9 mb 0.00 in0.0 mm 0.00 in0.0 mm 0.00 in0.0 mm
03:16 AM 64.6°F18.1°C 60.3°F15.7°C 86% Calm Calm -- 29.97 in1014.9 mb 0.00 in0.0 mm 0.00 in0.0 mm 0.00 in0.0 mm
03:21 AM 64.5°F18.1°C 60.2°F15.7°C 86% Calm Calm -- 29.97 in1014.9 mb 0.00 in0.0 mm 0.00 in0.0 mm 0.00 in0.0 mm
03:26 AM 64.6°F18.1°C 60.6°F15.9°C 87% Calm Calm 1.0 mph1.6 kmh 29.97 in1014.9 mb 0.00 in0.0 mm 0.00 in0.0 mm 0.00 in0.0 mm
03:31 AM 65.1°F18.4°C 60.8°F16.0°C 86% 1.0 mph E1.6 kmh E 1.0 mph1.6 kmh 29.97 in1014.9 mb 0.00 in0.0 mm 0.00 in0.0 mm 0.00 in0.0 mm
03:36 AM 65.5°F18.6°C 61.2°F16.2°C 86% Calm Calm 1.0 mph1.6 kmh 29.97 in1014.9 mb 0.00 in0.0 mm 0.00 in0.0 mm 0.00 in0.0 mm
03:41 AM 65.6°F18.7°C 61.3°F16.3°C 86% Calm Calm 1.0 mph1.6 kmh 29.97 in1014.9 mb 0.00 in0.0 mm 0.00 in0.0 mm 0.00 in0.0 mm
03:46 AM 65.6°F18.7°C 61.3°F16.3°C 86% Calm Calm 1.0 mph1.6 kmh 29.97 in1014.9 mb 0.00 in0.0 mm 0.00 in0.0 mm 0.00 in0.0 mm
03:51 AM 65.9°F18.8°C 61.9°F16.6°C 87% Calm Calm 1.0 mph1.6 kmh 29.97 in1014.9 mb 0.00 in0.0 mm 0.00 in0.0 mm 0.00 in0.0 mm
03:56 AM 66.0°F18.9°C 62.0°F16.7°C 87% Calm Calm -- 29.97 in1014.9 mb 0.00 in0.0 mm 0.00 in0.0 mm 0.00 in0.0 mm
04:01 AM 66.0°F18.9°C 62.0°F16.7°C 87% Calm Calm 1.0 mph1.6 kmh 29.97 in1014.9 mb 0.00 in0.0 mm 0.00 in0.0 mm 0.00 in0.0 mm
04:06 AM 65.9°F18.8°C 61.9°F16.6°C 87% 1.0 mph E1.6 kmh E 1.0 mph1.6 kmh 29.97 in1014.9 mb 0.00 in0.0 mm 0.00 in0.0 mm 0.00 in0.0 mm
04:11 AM 65.5°F18.6°C 61.2°F16.2°C 86% 1.0 mph E1.6 kmh E 1.0 mph1.6 kmh 29.97 in1014.9 mb 0.00 in0.0 mm 0.00 in0.0 mm 0.00 in0.0 mm
04:16 AM 65.2°F18.4°C 60.9°F16.1°C 86% 1.0 mph E1.6 kmh E 1.0 mph1.6 kmh 29.97 in1014.9 mb 0.00 in0.0 mm 0.00 in0.0 mm 0.00 in0.0 mm
04:21 AM 65.2°F18.4°C 61.5°F16.4°C 88% Calm Calm 1.0 mph1.6 kmh 29.97 in1014.9 mb 0.00 in0.0 mm 0.00 in0.0 mm 0.00 in0.0 mm
04:26 AM 65.2°F18.4°C 61.2°F16.2°C 87% Calm Calm 1.0 mph1.6 kmh 29.97 in1014.9 mb 0.00 in0.0 mm 0.00 in0.0 mm 0.00 in0.0 mm
04:31 AM 65.1°F18.4°C 61.1°F16.2°C 87% Calm Calm 1.0 mph1.6 kmh 29.97 in1014.9 mb 0.00 in0.0 mm 0.00 in0.0 mm 0.00 in0.0 mm
04:36 AM 65.1°F18.4°C 61.4°F16.3°C 88% Calm Calm -- 29.97 in1014.9 mb 0.00 in0.0 mm 0.00 in0.0 mm 0.00 in0.0 mm
04:41 AM 65.0°F18.3°C 61.3°F16.3°C 88% Calm Calm -- 29.97 in1014.9 mb 0.00 in0.0 mm 0.00 in0.0 mm 0.00 in0.0 mm
04:46 AM 65.0°F18.3°C 61.3°F16.3°C 88% Calm Calm -- 29.97 in1014.9 mb 0.00 in0.0 mm 0.00 in0.0 mm 0.00 in0.0 mm
04:51 AM 64.8°F18.2°C 61.2°F16.2°C 88% Calm Calm -- 29.97 in1014.9 mb 0.00 in0.0 mm 0.00 in0.0 mm 0.00 in0.0 mm
04:56 AM 64.6°F18.1°C 61.0°F16.1°C 88% Calm Calm -- 29.98 in1015.2 mb 0.00 in0.0 mm 0.00 in0.0 mm 0.00 in0.0 mm
05:01 AM 64.3°F17.9°C 60.7°F15.9°C 88% Calm Calm -- 29.97 in1014.9 mb 0.00 in0.0 mm 0.00 in0.0 mm 0.00 in0.0 mm
05:06 AM 64.2°F17.9°C 60.6°F15.9°C 88% Calm Calm -- 29.98 in1015.2 mb 0.00 in0.0 mm 0.00 in0.0 mm 0.00 in0.0 mm
05:11 AM 64.1°F17.8°C 60.8°F16.0°C 89% Calm Calm -- 29.97 in1014.9 mb 0.00 in0.0 mm 0.00 in0.0 mm 0.00 in0.0 mm
05:16 AM 64.1°F17.8°C 60.8°F16.0°C 89% Calm Calm -- 29.98 in1015.2 mb 0.00 in0.0 mm 0.00 in0.0 mm 0.00 in0.0 mm
05:21 AM 64.1°F17.8°C 61.1°F16.2°C 90% Calm Calm -- 29.98 in1015.2 mb 0.00 in0.0 mm 0.00 in0.0 mm 0.00 in0.0 mm
05:26 AM 64.1°F17.8°C 61.1°F16.2°C 90% Calm Calm -- 29.98 in1015.2 mb 0.00 in0.0 mm 0.00 in0.0 mm 0.00 in0.0 mm
05:31 AM 64.2°F17.9°C 61.2°F16.2°C 90% Calm Calm -- 29.98 in1015.2 mb 0.00 in0.0 mm 0.00 in0.0 mm 0.00 in0.0 mm
05:36 AM 64.3°F17.9°C 61.6°F16.4°C 91% Calm Calm -- 29.99 in1015.6 mb 0.00 in0.0 mm 0.00 in0.0 mm 0.00 in0.0 mm
05:41 AM 64.5°F18.1°C 61.5°F16.4°C 90% Calm Calm 1.0 mph1.6 kmh 29.99 in1015.6 mb 0.00 in0.0 mm 0.00 in0.0 mm 0.00 in0.0 mm
05:46 AM 64.5°F18.1°C 61.5°F16.4°C 90% Calm Calm 1.0 mph1.6 kmh 29.99 in1015.6 mb 0.00 in0.0 mm 0.00 in0.0 mm 0.00 in0.0 mm
05:51 AM 64.5°F18.1°C 61.8°F16.6°C 91% 1.0 mph E1.6 kmh E 1.0 mph1.6 kmh 29.99 in1015.6 mb 0.00 in0.0 mm 0.00 in0.0 mm 0.00 in0.0 mm
05:56 AM 64.4°F18.0°C 61.4°F16.3°C 90% 1.1 mph E1.8 kmh E 2.0 mph3.2 kmh 30.00 in1015.9 mb 0.00 in0.0 mm 0.00 in0.0 mm 0.00 in0.0 mm
06:01 AM 64.3°F17.9°C 61.6°F16.4°C 91% 1.0 mph E1.6 kmh E 2.0 mph3.2 kmh 30.00 in1015.9 mb 0.00 in0.0 mm 0.00 in0.0 mm 0.00 in0.0 mm
06:06 AM 64.3°F17.9°C 61.6°F16.4°C 91% 1.0 mph E1.6 kmh E 2.0 mph3.2 kmh 30.00 in1015.9 mb 0.00 in0.0 mm 0.00 in0.0 mm 0.00 in0.0 mm
06:11 AM 64.3°F17.9°C 61.6°F16.4°C 91% 1.4 mph E2.3 kmh E 2.0 mph3.2 kmh 30.00 in1015.9 mb 0.00 in0.0 mm 0.00 in0.0 mm 0.00 in0.0 mm
06:16 AM 64.4°F18.0°C 62.0°F16.7°C 92% 1.4 mph E2.3 kmh E 2.0 mph3.2 kmh 30.00 in1015.9 mb 0.00 in0.0 mm 0.00 in0.0 mm 0.00 in0.0 mm
06:21 AM 64.5°F18.1°C 62.1°F16.7°C 92% Calm Calm 2.0 mph3.2 kmh 30.00 in1015.9 mb 0.00 in0.0 mm 0.00 in0.0 mm 0.00 in0.0 mm
06:26 AM 64.5°F18.1°C 62.1°F16.7°C 92% 1.0 mph SE1.6 kmh SE 2.0 mph3.2 kmh 30.00 in1015.9 mb 0.00 in0.0 mm 0.00 in0.0 mm 0.00 in0.0 mm
06:31 AM 64.5°F18.1°C 62.1°F16.7°C 92% 1.0 mph ESE1.6 kmh ESE 2.0 mph3.2 kmh 30.00 in1015.9 mb 0.00 in0.0 mm 0.00 in0.0 mm 0.00 in0.0 mm
06:36 AM 64.5°F18.1°C 62.1°F16.7°C 92% 1.4 mph E2.3 kmh E 3.0 mph4.8 kmh 30.00 in1015.9 mb 0.00 in0.0 mm 0.00 in0.0 mm 0.00 in0.0 mm
06:41 AM 64.4°F18.0°C 62.3°F16.8°C 93% 1.2 mph E1.9 kmh E 3.0 mph4.8 kmh 30.00 in1015.9 mb 0.00 in0.0 mm 0.00 in0.0 mm 0.00 in0.0 mm
06:46 AM 64.3°F17.9°C 62.2°F16.8°C 93% 1.0 mph E1.6 kmh E 3.0 mph4.8 kmh 30.00 in1015.9 mb 0.00 in0.0 mm 0.00 in0.0 mm 0.00 in0.0 mm
06:51 AM 64.2°F17.9°C 62.4°F16.9°C 94% 1.0 mph E1.6 kmh E 3.0 mph4.8 kmh 30.00 in1015.9 mb 0.00 in0.0 mm 0.00 in0.0 mm 0.00 in0.0 mm
06:56 AM 64.0°F17.8°C 62.2°F16.8°C 94% 1.0 mph E1.6 kmh E 3.0 mph4.8 kmh 30.00 in1015.9 mb 0.00 in0.0 mm 0.00 in0.0 mm 0.00 in0.0 mm
07:01 AM 63.9°F17.7°C 62.4°F16.9°C 95% Calm Calm 3.0 mph4.8 kmh 30.01 in1016.3 mb 0.00 in0.0 mm 0.00 in0.0 mm 0.00 in0.0 mm
07:06 AM 63.9°F17.7°C 62.4°F16.9°C 95% 1.4 mph E2.3 kmh E 2.0 mph3.2 kmh 30.01 in1016.3 mb 0.00 in0.0 mm 0.00 in0.0 mm 0.00 in0.0 mm
07:11 AM 63.9°F17.7°C 62.7°F17.1°C 96% 1.1 mph E1.8 kmh E 2.0 mph3.2 kmh 30.01 in1016.3 mb 0.00 in0.0 mm 0.00 in0.0 mm 0.00 in0.0 mm
07:16 AM 64.1°F17.8°C 62.9°F17.2°C 96% 1.0 mph E1.6 kmh E 2.0 mph3.2 kmh 30.01 in1016.3 mb 0.00 in0.0 mm 0.00 in0.0 mm 0.00 in0.0 mm
07:21 AM 64.2°F17.9°C 63.0°F17.2°C 96% 1.0 mph E1.6 kmh E 2.0 mph3.2 kmh 30.01 in1016.3 mb 0.00 in0.0 mm 0.00 in0.0 mm 0.00 in0.0 mm
07:26 AM 64.4°F18.0°C 63.2°F17.3°C 96% 1.0 mph E1.6 kmh E 2.0 mph3.2 kmh 30.01 in1016.3 mb 0.00 in0.0 mm 0.00 in0.0 mm 0.00 in0.0 mm
07:31 AM 64.6°F18.1°C 63.7°F17.6°C 97% 1.1 mph E1.8 kmh E 2.0 mph3.2 kmh 30.01 in1016.3 mb 0.00 in0.0 mm 0.00 in0.0 mm 0.00 in0.0 mm
07:36 AM 64.7°F18.2°C 63.8°F17.7°C 97% 1.4 mph E2.3 kmh E 3.0 mph4.8 kmh 30.01 in1016.3 mb 0.00 in0.0 mm 0.00 in0.0 mm 0.00 in0.0 mm
07:41 AM 64.8°F18.2°C 63.9°F17.7°C 97% 1.7 mph E2.7 kmh E 3.0 mph4.8 kmh 30.01 in1016.3 mb 0.00 in0.0 mm 0.00 in0.0 mm 0.00 in0.0 mm
07:46 AM 65.0°F18.3°C 64.1°F17.8°C 97% 1.6 mph ESE2.6 kmh ESE 3.0 mph4.8 kmh 30.01 in1016.3 mb 0.00 in0.0 mm 0.00 in0.0 mm 0.00 in0.0 mm
07:51 AM 65.2°F18.4°C 64.3°F17.9°C 97% 1.5 mph ESE2.4 kmh ESE 3.0 mph4.8 kmh 30.00 in1015.9 mb 0.00 in0.0 mm 0.00 in0.0 mm 0.00 in0.0 mm
07:56 AM 65.4°F18.6°C 64.5°F18.1°C 97% 2.4 mph SE3.9 kmh SE 4.0 mph6.4 kmh 30.00 in1015.9 mb 0.00 in0.0 mm 0.00 in0.0 mm 0.00 in0.0 mm
08:00 AM 65.6°F18.7°C 64.7°F18.2°C 97% 1.0 mph ESE1.6 kmh ESE 4.0 mph6.4 kmh 30.00 in1015.9 mb 0.00 in0.0 mm 0.00 in0.0 mm 0.00 in0.0 mm
08:05 AM 65.6°F18.7°C 64.7°F18.2°C 97% 1.0 mph ESE1.6 kmh ESE 4.0 mph6.4 kmh 30.01 in1016.3 mb 0.00 in0.0 mm 0.00 in0.0 mm 0.00 in0.0 mm
08:10 AM 65.6°F18.7°C 64.7°F18.2°C 97% 1.2 mph SE1.9 kmh SE 4.0 mph6.4 kmh 30.01 in1016.3 mb 0.00 in0.0 mm 0.00 in0.0 mm 0.00 in0.0 mm
08:15 AM 65.5°F18.6°C 64.6°F18.1°C 97% 3.1 mph SE5.0 kmh SE 5.0 mph8.0 kmh 30.01 in1016.3 mb 0.00 in0.0 mm 0.00 in0.0 mm 0.00 in0.0 mm
08:20 AM 65.8°F18.8°C 64.9°F18.3°C 97% 1.0 mph SE1.6 kmh SE 5.0 mph8.0 kmh 30.01 in1016.3 mb 0.00 in0.0 mm 0.00 in0.0 mm 0.00 in0.0 mm
08:25 AM 65.9°F18.8°C 65.0°F18.3°C 97% 1.5 mph SE2.4 kmh SE 5.0 mph8.0 kmh 30.02 in1016.6 mb 0.00 in0.0 mm 0.00 in0.0 mm 0.00 in0.0 mm
08:30 AM 66.3°F19.1°C 65.4°F18.6°C 97% 1.0 mph SE1.6 kmh SE 5.0 mph8.0 kmh 30.02 in1016.6 mb 0.00 in0.0 mm 0.00 in0.0 mm 0.00 in0.0 mm
08:35 AM 67.0°F19.4°C 66.1°F18.9°C 97% Calm Calm 3.0 mph4.8 kmh 30.02 in1016.6 mb 0.00 in0.0 mm 0.00 in0.0 mm 0.00 in0.0 mm
08:40 AM 67.8°F19.9°C 66.9°F19.4°C 97% 1.5 mph S2.4 kmh S 3.0 mph4.8 kmh 30.02 in1016.6 mb 0.00 in0.0 mm 0.00 in0.0 mm 0.00 in0.0 mm
08:45 AM 68.5°F20.3°C 67.0°F19.4°C 95% 1.3 mph ESE2.1 kmh ESE 3.0 mph4.8 kmh 30.02 in1016.6 mb 0.00 in0.0 mm 0.00 in0.0 mm 0.00 in0.0 mm
08:50 AM 69.4°F20.8°C 66.9°F19.4°C 92% Calm Calm 2.0 mph3.2 kmh 30.02 in1016.6 mb 0.00 in0.0 mm 0.00 in0.0 mm 0.00 in0.0 mm
08:55 AM 70.3°F21.3°C 66.9°F19.4°C 89% 1.7 mph SE2.7 kmh SE 3.0 mph4.8 kmh 30.02 in1016.6 mb 0.00 in0.0 mm 0.00 in0.0 mm 0.00 in0.0 mm
09:00 AM 71.0°F21.7°C 66.3°F19.1°C 85% 1.5 mph SE2.4 kmh SE 3.0 mph4.8 kmh 30.02 in1016.6 mb 0.00 in0.0 mm 0.00 in0.0 mm 0.00 in0.0 mm
09:05 AM 71.4°F21.9°C 66.0°F18.9°C 83% 2.2 mph SW3.5 kmh SW 4.0 mph6.4 kmh 30.02 in1016.6 mb 0.00 in0.0 mm 0.00 in0.0 mm 0.00 in0.0 mm
09:10 AM 71.7°F22.1°C 66.0°F18.9°C 82% 2.0 mph SW3.2 kmh SW 4.0 mph6.4 kmh 30.03 in1016.9 mb 0.00 in0.0 mm 0.00 in0.0 mm 0.00 in0.0 mm
09:15 AM 71.9°F22.2°C 66.2°F19.0°C 82% 1.3 mph SSW2.1 kmh SSW 4.0 mph6.4 kmh 30.03 in1016.9 mb 0.00 in0.0 mm 0.00 in0.0 mm 0.00 in0.0 mm
09:20 AM 72.2°F22.3°C 66.5°F19.2°C 82% Calm Calm 4.0 mph6.4 kmh 30.03 in1016.9 mb 0.00 in0.0 mm 0.00 in0.0 mm 0.00 in0.0 mm
09:25 AM 72.1°F22.3°C 66.0°F18.9°C 81% 2.3 mph SW3.7 kmh SW 6.0 mph9.7 kmh 30.03 in1016.9 mb 0.00 in0.0 mm 0.00 in0.0 mm 0.00 in0.0 mm
09:30 AM 72.0°F22.2°C 65.9°F18.8°C 81% 1.5 mph SW2.4 kmh SW 6.0 mph9.7 kmh 30.03 in1016.9 mb 0.00 in0.0 mm 0.00 in0.0 mm 0.00 in0.0 mm
09:35 AM 72.2°F22.3°C 65.8°F18.8°C 80% 1.0 mph SW1.6 kmh SW 6.0 mph9.7 kmh 30.03 in1016.9 mb 0.00 in0.0 mm 0.00 in0.0 mm 0.00 in0.0 mm
09:40 AM 72.3°F22.4°C 65.4°F18.6°C 79% 2.0 mph SW3.2 kmh SW 6.0 mph9.7 kmh 30.04 in1017.3 mb 0.00 in0.0 mm 0.00 in0.0 mm 0.00 in0.0 mm
09:45 AM 72.6°F22.6°C 65.8°F18.8°C 79% 2.0 mph SW3.2 kmh SW 5.0 mph8.0 kmh 30.03 in1016.9 mb 0.00 in0.0 mm 0.00 in0.0 mm 0.00 in0.0 mm
09:50 AM 72.8°F22.7°C 66.0°F18.9°C 79% 1.0 mph SW1.6 kmh SW 5.0 mph8.0 kmh 30.03 in1016.9 mb 0.00 in0.0 mm 0.00 in0.0 mm 0.00 in0.0 mm
09:55 AM 73.2°F22.9°C 66.0°F18.9°C 78% 1.0 mph SE1.6 kmh SE 5.0 mph8.0 kmh 30.04 in1017.3 mb 0.00 in0.0 mm 0.00 in0.0 mm 0.00 in0.0 mm
10:00 AM 73.2°F22.9°C 65.3°F18.5°C 76% 2.6 mph SW4.2 kmh SW 5.0 mph8.0 kmh 30.03 in1016.9 mb 0.00 in0.0 mm 0.00 in0.0 mm 0.00 in0.0 mm
10:05 AM 73.5°F23.1°C 66.0°F18.9°C 77% 1.3 mph SSW2.1 kmh SSW 5.0 mph8.0 kmh 30.03 in1016.9 mb 0.00 in0.0 mm 0.00 in0.0 mm 0.00 in0.0 mm
10:10 AM 73.7°F23.2°C 66.2°F19.0°C 77% 2.1 mph SSW3.4 kmh SSW 5.0 mph8.0 kmh 30.03 in1016.9 mb 0.00 in0.0 mm 0.00 in0.0 mm 0.00 in0.0 mm
10:15 AM 74.0°F23.3°C 66.1°F18.9°C 76% 1.8 mph S2.9 kmh S 5.0 mph8.0 kmh 30.03 in1016.9 mb 0.00 in0.0 mm 0.00 in0.0 mm 0.00 in0.0 mm
10:20 AM 74.4°F23.6°C 66.1°F18.9°C 75% 1.6 mph SSE2.6 kmh SSE 4.0 mph6.4 kmh 30.04 in1017.3 mb 0.00 in0.0 mm 0.00 in0.0 mm 0.00 in0.0 mm
10:25 AM 74.7°F23.7°C 66.0°F18.9°C 74% 1.5 mph SSW2.4 kmh SSW 4.0 mph6.4 kmh 30.04 in1017.3 mb 0.00 in0.0 mm 0.00 in0.0 mm 0.00 in0.0 mm
10:30 AM 74.9°F23.8°C 65.4°F18.6°C 72% 2.6 mph SSW4.2 kmh SSW 6.0 mph9.7 kmh 30.03 in1016.9 mb 0.00 in0.0 mm 0.00 in0.0 mm 0.00 in0.0 mm
10:35 AM 75.1°F23.9°C 65.2°F18.4°C 71% 2.0 mph SSW3.2 kmh SSW 6.0 mph9.7 kmh 30.03 in1016.9 mb 0.00 in0.0 mm 0.00 in0.0 mm 0.00 in0.0 mm
10:40 AM 75.3°F24.1°C 65.0°F18.3°C 70% 2.6 mph SW4.2 kmh SW 8.0 mph12.9 kmh 30.03 in1016.9 mb 0.00 in0.0 mm 0.00 in0.0 mm 0.00 in0.0 mm
10:45 AM 75.4°F24.1°C 64.7°F18.2°C 69% 2.3 mph SSW3.7 kmh SSW 8.0 mph12.9 kmh 30.04 in1017.3 mb 0.00 in0.0 mm 0.00 in0.0 mm 0.00 in0.0 mm
10:50 AM 75.7°F24.3°C 64.2°F17.9°C 67% 1.8 mph SSW2.9 kmh SSW 8.0 mph12.9 kmh 30.04 in1017.3 mb 0.00 in0.0 mm 0.00 in0.0 mm 0.00 in0.0 mm
10:55 AM 76.1°F24.5°C 65.0°F18.3°C 68% 2.5 mph S4.0 kmh S 8.0 mph12.9 kmh 30.04 in1017.3 mb 0.00 in0.0 mm 0.00 in0.0 mm 0.00 in0.0 mm
11:00 AM 76.8°F24.9°C 65.2°F18.4°C 67% 1.2 mph SW1.9 kmh SW 5.0 mph8.0 kmh 30.04 in1017.3 mb 0.00 in0.0 mm 0.00 in0.0 mm 0.00 in0.0 mm
11:05 AM 77.0°F25.0°C 63.9°F17.7°C 64% 3.2 mph SW5.1 kmh SW 7.0 mph11.3 kmh 30.04 in1017.3 mb 0.00 in0.0 mm 0.00 in0.0 mm 0.00 in0.0 mm
11:10 AM 76.8°F24.9°C 63.9°F17.7°C 64% 3.4 mph SW5.5 kmh SW 12.0 mph19.3 kmh 30.03 in1016.9 mb 0.00 in0.0 mm 0.00 in0.0 mm 0.00 in0.0 mm
11:15 AM 76.9°F24.9°C 64.5°F18.1°C 65% 4.6 mph SW7.4 kmh SW 12.0 mph19.3 kmh 30.03 in1016.9 mb 0.00 in0.0 mm 0.00 in0.0 mm 0.00 in0.0 mm
11:20 AM 77.5°F25.3°C 64.6°F18.1°C 64% 2.8 mph SW4.5 kmh SW 12.0 mph19.3 kmh 30.03 in1016.9 mb 0.00 in0.0 mm 0.00 in0.0 mm 0.00 in0.0 mm
11:25 AM 77.8°F25.4°C 64.4°F18.0°C 63% 1.8 mph SW2.9 kmh SW 12.0 mph19.3 kmh 30.03 in1016.9 mb 0.00 in0.0 mm 0.00 in0.0 mm 0.00 in0.0 mm
11:30 AM 78.0°F25.6°C 63.7°F17.6°C 61% 1.8 mph SW2.9 kmh SW 12.0 mph19.3 kmh 30.03 in1016.9 mb 0.00 in0.0 mm 0.00 in0.0 mm 0.00 in0.0 mm
11:36 AM 78.4°F25.8°C 63.6°F17.6°C 60% 4.4 mph SW7.1 kmh SW 10.0 mph16.1 kmh 30.03 in1016.9 mb 0.00 in0.0 mm 0.00 in0.0 mm 0.00 in0.0 mm
11:41 AM 78.2°F25.7°C 62.9°F17.2°C 59% 5.4 mph SW8.7 kmh SW 12.0 mph19.3 kmh 30.03 in1016.9 mb 0.00 in0.0 mm 0.00 in0.0 mm 0.00 in0.0 mm
11:45 AM 78.5°F25.8°C 64.2°F17.9°C 61% 1.9 mph SW3.1 kmh SW 12.0 mph19.3 kmh 30.03 in1016.9 mb 0.00 in0.0 mm 0.00 in0.0 mm 0.00 in0.0 mm
11:51 AM 79.4°F26.3°C 63.6°F17.6°C 58% 1.5 mph SSW2.4 kmh SSW 12.0 mph19.3 kmh 30.03 in1016.9 mb 0.00 in0.0 mm 0.00 in0.0 mm 0.00 in0.0 mm
11:55 AM 79.8°F26.6°C 63.4°F17.4°C 57% 3.5 mph SW5.6 kmh SW 12.0 mph19.3 kmh 30.02 in1016.6 mb 0.00 in0.0 mm 0.00 in0.0 mm 0.00 in0.0 mm
12:01 PM 80.2°F26.8°C 64.8°F18.2°C 59% 1.7 mph SW2.7 kmh SW 11.0 mph17.7 kmh 30.02 in1016.6 mb 0.00 in0.0 mm 0.00 in0.0 mm 0.00 in0.0 mm
12:06 PM 79.9°F26.6°C 63.5°F17.5°C 57% 3.8 mph SSW6.1 kmh SSW 11.0 mph17.7 kmh 30.02 in1016.6 mb 0.00 in0.0 mm 0.00 in0.0 mm 0.00 in0.0 mm
12:11 PM 79.3°F26.3°C 63.2°F17.3°C 58% 2.8 mph SSW4.5 kmh SSW 11.0 mph17.7 kmh 30.01 in1016.3 mb 0.00 in0.0 mm 0.00 in0.0 mm 0.00 in0.0 mm
12:16 PM 79.9°F26.6°C 63.5°F17.5°C 57% 1.4 mph SSW2.3 kmh SSW 11.0 mph17.7 kmh 30.01 in1016.3 mb 0.00 in0.0 mm 0.00 in0.0 mm 0.00 in0.0 mm
12:21 PM 80.8°F27.1°C 62.8°F17.1°C 54% 2.8 mph SSW4.5 kmh SSW 11.0 mph17.7 kmh 30.01 in1016.3 mb 0.00 in0.0 mm 0.00 in0.0 mm 0.00 in0.0 mm
12:26 PM 81.0°F27.2°C 62.4°F16.9°C 53% 2.0 mph SE3.2 kmh SE 7.0 mph11.3 kmh 30.01 in1016.3 mb 0.00 in0.0 mm 0.00 in0.0 mm 0.00 in0.0 mm
12:30 PM 80.4°F26.9°C 61.7°F16.5°C 53% 5.1 mph SW8.2 kmh SW 12.0 mph19.3 kmh 30.00 in1015.9 mb 0.00 in0.0 mm 0.00 in0.0 mm 0.00 in0.0 mm
12:36 PM 80.0°F26.7°C 61.3°F16.3°C 53% 4.0 mph SW6.4 kmh SW 12.0 mph19.3 kmh 30.01 in1016.3 mb 0.00 in0.0 mm 0.00 in0.0 mm 0.00 in0.0 mm
12:41 PM 79.3°F26.3°C 61.4°F16.3°C 54% 4.4 mph SW7.1 kmh SW 12.0 mph19.3 kmh 30.01 in1016.3 mb 0.00 in0.0 mm 0.00 in0.0 mm 0.00 in0.0 mm
12:46 PM 79.2°F26.2°C 61.8°F16.6°C 55% 3.4 mph SW5.5 kmh SW 12.0 mph19.3 kmh 30.00 in1015.9 mb 0.00 in0.0 mm 0.00 in0.0 mm 0.00 in0.0 mm
12:51 PM 79.2°F26.2°C 62.3°F16.8°C 56% 1.1 mph S1.8 kmh S 12.0 mph19.3 kmh 30.00 in1015.9 mb 0.00 in0.0 mm 0.00 in0.0 mm 0.00 in0.0 mm
12:56 PM 79.5°F26.4°C 62.9°F17.2°C 57% 1.5 mph SW2.4 kmh SW 11.0 mph17.7 kmh 30.00 in1015.9 mb 0.00 in0.0 mm 0.00 in0.0 mm 0.00 in0.0 mm
01:00 PM 80.3°F26.8°C 62.3°F16.8°C 54% 3.0 mph SSW4.8 kmh SSW 11.0 mph17.7 kmh 29.99 in1015.6 mb 0.00 in0.0 mm 0.00 in0.0 mm 0.00 in0.0 mm
01:05 PM 80.2°F26.8°C 61.7°F16.5°C 53% 3.1 mph SW5.0 kmh SW 10.0 mph16.1 kmh 29.99 in1015.6 mb 0.00 in0.0 mm 0.00 in0.0 mm 0.00 in0.0 mm
01:10 PM 79.9°F26.6°C 61.8°F16.6°C 54% 2.2 mph SSW3.5 kmh SSW 10.0 mph16.1 kmh 29.99 in1015.6 mb 0.00 in0.0 mm 0.00 in0.0 mm 0.00 in0.0 mm
01:15 PM 79.9°F26.6°C 61.9°F16.6°C 54% 2.1 mph S3.4 kmh S 10.0 mph16.1 kmh 29.98 in1015.2 mb 0.00 in0.0 mm 0.00 in0.0 mm 0.00 in0.0 mm
01:20 PM 79.9°F26.6°C 60.8°F16.0°C 52% 3.3 mph SW5.3 kmh SW 10.0 mph16.1 kmh 29.97 in1014.9 mb 0.00 in0.0 mm 0.00 in0.0 mm 0.00 in0.0 mm
01:25 PM 80.4°F26.9°C 61.9°F16.6°C 53% 1.1 mph SSW1.8 kmh SSW 10.0 mph16.1 kmh 29.97 in1014.9 mb 0.00 in0.0 mm 0.00 in0.0 mm 0.00 in0.0 mm
01:30 PM 81.0°F27.2°C 61.9°F16.6°C 52% 3.6 mph SSE5.8 kmh SSE 10.0 mph16.1 kmh 29.97 in1014.9 mb 0.00 in0.0 mm 0.00 in0.0 mm 0.00 in0.0 mm
01:35 PM 81.0°F27.2°C 61.3°F16.3°C 51% 3.0 mph SW4.8 kmh SW 10.0 mph16.1 kmh 29.97 in1014.9 mb 0.00 in0.0 mm 0.00 in0.0 mm 0.00 in0.0 mm
01:40 PM 81.2°F27.3°C 61.5°F16.4°C 51% 3.0 mph SE4.8 kmh SE 8.0 mph12.9 kmh 29.97 in1014.9 mb 0.00 in0.0 mm 0.00 in0.0 mm 0.00 in0.0 mm
01:45 PM 81.2°F27.3°C 60.8°F16.0°C 50% 4.9 mph SE7.9 kmh SE 11.0 mph17.7 kmh 29.97 in1014.9 mb 0.00 in0.0 mm 0.00 in0.0 mm 0.00 in0.0 mm
01:50 PM 81.1°F27.3°C 60.8°F16.0°C 50% 3.7 mph SE6.0 kmh SE 12.0 mph19.3 kmh 29.96 in1014.6 mb 0.00 in0.0 mm 0.00 in0.0 mm 0.00 in0.0 mm
01:55 PM 81.3°F27.4°C 61.0°F16.1°C 50% 3.2 mph S5.1 kmh S 12.0 mph19.3 kmh 29.96 in1014.6 mb 0.00 in0.0 mm 0.00 in0.0 mm 0.00 in0.0 mm
02:00 PM 81.8°F27.7°C 60.9°F16.1°C 49% 3.1 mph S5.0 kmh S 12.0 mph19.3 kmh 29.95 in1014.2 mb 0.00 in0.0 mm 0.00 in0.0 mm 0.00 in0.0 mm
02:05 PM 81.8°F27.7°C 61.5°F16.4°C 50% 3.1 mph S5.0 kmh S 12.0 mph19.3 kmh 29.95 in1014.2 mb 0.00 in0.0 mm 0.00 in0.0 mm 0.00 in0.0 mm
02:10 PM 81.8°F27.7°C 60.8°F16.0°C 49% 2.5 mph S4.0 kmh S 12.0 mph19.3 kmh 29.95 in1014.2 mb 0.00 in0.0 mm 0.00 in0.0 mm 0.00 in0.0 mm
02:15 PM 81.9°F27.7°C 61.0°F16.1°C 49% 3.7 mph SSE6.0 kmh SSE 12.0 mph19.3 kmh 29.95 in1014.2 mb 0.00 in0.0 mm 0.00 in0.0 mm 0.00 in0.0 mm
02:20 PM 82.3°F27.9°C 61.3°F16.3°C 49% 2.2 mph S3.5 kmh S 12.0 mph19.3 kmh 29.95 in1014.2 mb 0.00 in0.0 mm 0.00 in0.0 mm 0.00 in0.0 mm
02:25 PM 82.3°F27.9°C 60.7°F15.9°C 48% 3.9 mph S6.3 kmh S 13.0 mph20.9 kmh 29.94 in1013.9 mb 0.00 in0.0 mm 0.00 in0.0 mm 0.00 in0.0 mm
02:30 PM 81.7°F27.6°C 60.8°F16.0°C 49% 2.9 mph S4.7 kmh S 13.0 mph20.9 kmh 29.94 in1013.9 mb 0.00 in0.0 mm 0.00 in0.0 mm 0.00 in0.0 mm
02:35 PM 82.1°F27.8°C 59.3°F15.2°C 46% 4.5 mph SSE7.2 kmh SSE 13.0 mph20.9 kmh 29.94 in1013.9 mb 0.00 in0.0 mm 0.00 in0.0 mm 0.00 in0.0 mm
02:40 PM 82.3°F27.9°C 59.5°F15.3°C 46% 3.8 mph S6.1 kmh S 13.0 mph20.9 kmh 29.94 in1013.9 mb 0.00 in0.0 mm 0.00 in0.0 mm 0.00 in0.0 mm
02:45 PM 82.3°F27.9°C 60.7°F15.9°C 48% 3.9 mph SW6.3 kmh SW 12.0 mph19.3 kmh 29.93 in1013.5 mb 0.00 in0.0 mm 0.00 in0.0 mm 0.00 in0.0 mm
02:50 PM 82.5°F28.1°C 60.2°F15.7°C 47% 2.5 mph S4.0 kmh S 12.0 mph19.3 kmh 29.93 in1013.5 mb 0.00 in0.0 mm 0.00 in0.0 mm 0.00 in0.0 mm
02:55 PM 82.7°F28.2°C 59.9°F15.5°C 46% 1.9 mph SSW3.1 kmh SSW 12.0 mph19.3 kmh 29.93 in1013.5 mb 0.00 in0.0 mm 0.00 in0.0 mm 0.00 in0.0 mm
03:00 PM 82.5°F28.1°C 60.3°F15.7°C 47% 2.4 mph SE3.9 kmh SE 13.0 mph20.9 kmh 29.93 in1013.5 mb 0.00 in0.0 mm 0.00 in0.0 mm 0.00 in0.0 mm
03:05 PM 83.1°F28.4°C 60.2°F15.7°C 46% 2.5 mph SSW4.0 kmh SSW 13.0 mph20.9 kmh 29.92 in1013.2 mb 0.00 in0.0 mm 0.00 in0.0 mm 0.00 in0.0 mm
03:10 PM 83.2°F28.4°C 60.9°F16.1°C 47% 1.4 mph SSW2.3 kmh SSW 13.0 mph20.9 kmh 29.92 in1013.2 mb 0.00 in0.0 mm 0.00 in0.0 mm 0.00 in0.0 mm
03:15 PM 82.7°F28.2°C 61.1°F16.2°C 48% 2.6 mph SSE4.2 kmh SSE 13.0 mph20.9 kmh 29.92 in1013.2 mb 0.00 in0.0 mm 0.00 in0.0 mm 0.00 in0.0 mm
03:20 PM 82.5°F28.1°C 60.9°F16.1°C 48% 3.6 mph SW5.8 kmh SW 11.0 mph17.7 kmh 29.92 in1013.2 mb 0.00 in0.0 mm 0.00 in0.0 mm 0.00 in0.0 mm
03:25 PM 82.7°F28.2°C 60.5°F15.8°C 47% 2.8 mph SE4.5 kmh SE 11.0 mph17.7 kmh 29.92 in1013.2 mb 0.00 in0.0 mm 0.00 in0.0 mm 0.00 in0.0 mm
03:30 PM 82.8°F28.2°C 60.6°F15.9°C 47% 1.6 mph SSW2.6 kmh SSW 11.0 mph17.7 kmh 29.91 in1012.9 mb 0.00 in0.0 mm 0.00 in0.0 mm 0.00 in0.0 mm
03:35 PM 83.1°F28.4°C 60.9°F16.1°C 47% 3.1 mph SE5.0 kmh SE 11.0 mph17.7 kmh 29.91 in1012.9 mb 0.00 in0.0 mm 0.00 in0.0 mm 0.00 in0.0 mm
03:40 PM 83.1°F28.4°C 60.9°F16.1°C 47% 5.5 mph SSE8.9 kmh SSE 11.0 mph17.7 kmh 29.91 in1012.9 mb 0.00 in0.0 mm 0.00 in0.0 mm 0.00 in0.0 mm
03:45 PM 82.4°F28.0°C 61.4°F16.3°C 49% 3.0 mph SSE4.8 kmh SSE 11.0 mph17.7 kmh 29.91 in1012.9 mb 0.00 in0.0 mm 0.00 in0.0 mm 0.00 in0.0 mm
03:50 PM 82.2°F27.9°C 61.7°F16.5°C 50% 3.2 mph S5.1 kmh S 11.0 mph17.7 kmh 29.91 in1012.9 mb 0.00 in0.0 mm 0.00 in0.0 mm 0.00 in0.0 mm
03:55 PM 82.6°F28.1°C 62.8°F17.1°C 51% 2.2 mph S3.5 kmh S 11.0 mph17.7 kmh 29.91 in1012.9 mb 0.00 in0.0 mm 0.00 in0.0 mm 0.00 in0.0 mm
04:00 PM 82.5°F28.1°C 61.5°F16.4°C 49% 4.2 mph SW6.8 kmh SW 10.0 mph16.1 kmh 29.90 in1012.5 mb 0.00 in0.0 mm 0.00 in0.0 mm 0.00 in0.0 mm
04:05 PM 82.6°F28.1°C 61.6°F16.4°C 49% 2.6 mph S4.2 kmh S 10.0 mph16.1 kmh 29.90 in1012.5 mb 0.00 in0.0 mm 0.00 in0.0 mm 0.00 in0.0 mm
04:10 PM 83.1°F28.4°C 62.7°F17.1°C 50% 2.1 mph S3.4 kmh S 8.0 mph12.9 kmh 29.90 in1012.5 mb 0.00 in0.0 mm 0.00 in0.0 mm 0.00 in0.0 mm
04:15 PM 83.2°F28.4°C 62.8°F17.1°C 50% 2.9 mph SSE4.7 kmh SSE 8.0 mph12.9 kmh 29.90 in1012.5 mb 0.00 in0.0 mm 0.00 in0.0 mm 0.00 in0.0 mm
04:20 PM 82.8°F28.2°C 62.4°F16.9°C 50% 2.4 mph SSE3.9 kmh SSE 11.0 mph17.7 kmh 29.90 in1012.5 mb 0.00 in0.0 mm 0.00 in0.0 mm 0.00 in0.0 mm
04:25 PM 83.0°F28.3°C 63.7°F17.6°C 52% 2.1 mph SE3.4 kmh SE 11.0 mph17.7 kmh 29.90 in1012.5 mb 0.00 in0.0 mm 0.00 in0.0 mm 0.00 in0.0 mm
04:30 PM 83.4°F28.6°C 62.4°F16.9°C 49% 2.3 mph S3.7 kmh S 11.0 mph17.7 kmh 29.90 in1012.5 mb 0.00 in0.0 mm 0.00 in0.0 mm 0.00 in0.0 mm
04:35 PM 83.4°F28.6°C 62.4°F16.9°C 49% 2.1 mph SSE3.4 kmh SSE 11.0 mph17.7 kmh 29.90 in1012.5 mb 0.00 in0.0 mm 0.00 in0.0 mm 0.00 in0.0 mm
04:40 PM 83.6°F28.7°C 62.5°F16.9°C 49% 2.4 mph SE3.9 kmh SE 8.0 mph12.9 kmh 29.89 in1012.2 mb 0.00 in0.0 mm 0.00 in0.0 mm 0.00 in0.0 mm
04:45 PM 83.4°F28.6°C 62.9°F17.2°C 50% 4.7 mph SSE7.6 kmh SSE 10.0 mph16.1 kmh 29.89 in1012.2 mb 0.00 in0.0 mm 0.00 in0.0 mm 0.00 in0.0 mm
04:50 PM 82.8°F28.2°C 62.4°F16.9°C 50% 3.4 mph SSE5.5 kmh SSE 10.0 mph16.1 kmh 29.89 in1012.2 mb 0.00 in0.0 mm 0.00 in0.0 mm 0.00 in0.0 mm
04:55 PM 82.7°F28.2°C 62.2°F16.8°C 50% 3.2 mph SE5.1 kmh SE 10.0 mph16.1 kmh 29.89 in1012.2 mb 0.00 in0.0 mm 0.00 in0.0 mm 0.00 in0.0 mm
05:00 PM 82.1°F27.8°C 62.3°F16.8°C 51% 2.8 mph SE4.5 kmh SE 10.0 mph16.1 kmh 29.89 in1012.2 mb 0.00 in0.0 mm 0.00 in0.0 mm 0.00 in0.0 mm
05:05 PM 81.7°F27.6°C 62.5°F16.9°C 52% 3.6 mph SE5.8 kmh SE 10.0 mph16.1 kmh 29.89 in1012.2 mb 0.00 in0.0 mm 0.00 in0.0 mm 0.00 in0.0 mm
05:10 PM 82.0°F27.8°C 62.8°F17.1°C 52% 2.0 mph S3.2 kmh S 10.0 mph16.1 kmh 29.88 in1011.9 mb 0.00 in0.0 mm 0.00 in0.0 mm 0.00 in0.0 mm
05:15 PM 82.5°F28.1°C 63.3°F17.4°C 52% 1.8 mph S2.9 kmh S 10.0 mph16.1 kmh 29.88 in1011.9 mb 0.00 in0.0 mm 0.00 in0.0 mm 0.00 in0.0 mm
05:20 PM 82.5°F28.1°C 62.1°F16.7°C 50% 4.4 mph SSE7.1 kmh SSE 10.0 mph16.1 kmh 29.88 in1011.9 mb 0.00 in0.0 mm 0.00 in0.0 mm 0.00 in0.0 mm
05:25 PM 82.7°F28.2°C 62.3°F16.8°C 50% 2.5 mph SSE4.0 kmh SSE 10.0 mph16.1 kmh 29.88 in1011.9 mb 0.00 in0.0 mm 0.00 in0.0 mm 0.00 in0.0 mm
05:30 PM 82.4°F28.0°C 61.9°F16.6°C 50% 3.4 mph SE5.5 kmh SE 10.0 mph16.1 kmh 29.87 in1011.5 mb 0.00 in0.0 mm 0.00 in0.0 mm 0.00 in0.0 mm
05:35 PM 81.9°F27.7°C 61.6°F16.4°C 50% 4.5 mph SE7.2 kmh SE 10.0 mph16.1 kmh 29.88 in1011.9 mb 0.00 in0.0 mm 0.00 in0.0 mm 0.00 in0.0 mm
05:40 PM 81.9°F27.7°C 61.6°F16.4°C 50% 2.5 mph SE4.0 kmh SE 10.0 mph16.1 kmh 29.88 in1011.9 mb 0.00 in0.0 mm 0.00 in0.0 mm 0.00 in0.0 mm
05:45 PM 81.9°F27.7°C 62.1°F16.7°C 51% 2.4 mph ESE3.9 kmh ESE 10.0 mph16.1 kmh 29.87 in1011.5 mb 0.00 in0.0 mm 0.00 in0.0 mm 0.00 in0.0 mm
05:50 PM 81.7°F27.6°C 62.0°F16.7°C 51% 4.7 mph ESE7.6 kmh ESE 10.0 mph16.1 kmh 29.87 in1011.5 mb 0.00 in0.0 mm 0.00 in0.0 mm 0.00 in0.0 mm
05:55 PM 81.3°F27.4°C 62.5°F16.9°C 53% 2.7 mph ESE4.3 kmh ESE 8.0 mph12.9 kmh 29.87 in1011.5 mb 0.00 in0.0 mm 0.00 in0.0 mm 0.00 in0.0 mm
06:00 PM 80.9°F27.2°C 62.2°F16.8°C 53% 4.1 mph SE6.6 kmh SE 8.0 mph12.9 kmh 29.87 in1011.5 mb 0.00 in0.0 mm 0.00 in0.0 mm 0.00 in0.0 mm
06:05 PM 80.5°F26.9°C 62.5°F16.9°C 54% 5.4 mph SE8.7 kmh SE 9.0 mph14.5 kmh 29.88 in1011.9 mb 0.00 in0.0 mm 0.00 in0.0 mm 0.00 in0.0 mm
06:10 PM 80.1°F26.7°C 62.7°F17.1°C 55% 3.6 mph SE5.8 kmh SE 9.0 mph14.5 kmh 29.88 in1011.9 mb 0.00 in0.0 mm 0.00 in0.0 mm 0.00 in0.0 mm
06:15 PM 79.7°F26.5°C 62.1°F16.7°C 55% 4.8 mph SE7.7 kmh SE 11.0 mph17.7 kmh 29.88 in1011.9 mb 0.00 in0.0 mm 0.00 in0.0 mm 0.00 in0.0 mm
06:20 PM 79.4°F26.3°C 62.5°F16.9°C 56% 3.1 mph SE5.0 kmh SE 11.0 mph17.7 kmh 29.88 in1011.9 mb 0.00 in0.0 mm 0.00 in0.0 mm 0.00 in0.0 mm
06:25 PM 79.2°F26.2°C 62.9°F17.2°C 57% 4.4 mph SE7.1 kmh SE 11.0 mph17.7 kmh 29.87 in1011.5 mb 0.00 in0.0 mm 0.00 in0.0 mm 0.00 in0.0 mm
06:30 PM 79.0°F26.1°C 63.2°F17.3°C 58% 2.9 mph SE4.7 kmh SE 11.0 mph17.7 kmh 29.88 in1011.9 mb 0.00 in0.0 mm 0.00 in0.0 mm 0.00 in0.0 mm
06:35 PM 78.9°F26.1°C 63.4°F17.4°C 59% 3.7 mph SE6.0 kmh SE 11.0 mph17.7 kmh 29.88 in1011.9 mb 0.00 in0.0 mm 0.00 in0.0 mm 0.00 in0.0 mm
06:40 PM 78.6°F25.9°C 63.3°F17.4°C 59% 3.9 mph SE6.3 kmh SE 11.0 mph17.7 kmh 29.88 in1011.9 mb 0.00 in0.0 mm 0.00 in0.0 mm 0.00 in0.0 mm
06:45 PM 78.3°F25.7°C 63.3°F17.4°C 60% 4.4 mph SE7.1 kmh SE 9.0 mph14.5 kmh 29.88 in1011.9 mb 0.00 in0.0 mm 0.00 in0.0 mm 0.00 in0.0 mm
06:50 PM 78.1°F25.6°C 63.8°F17.7°C 61% 3.1 mph SSE5.0 kmh SSE 9.0 mph14.5 kmh 29.88 in1011.9 mb 0.00 in0.0 mm 0.00 in0.0 mm 0.00 in0.0 mm
06:55 PM 77.8°F25.4°C 64.0°F17.8°C 62% 3.1 mph SE5.0 kmh SE 8.0 mph12.9 kmh 29.88 in1011.9 mb 0.00 in0.0 mm 0.00 in0.0 mm 0.00 in0.0 mm
06:59 PM 77.6°F25.3°C 64.2°F17.9°C 63% 3.0 mph SE4.8 kmh SE 8.0 mph12.9 kmh 29.88 in1011.9 mb 0.00 in0.0 mm 0.00 in0.0 mm 0.00 in0.0 mm
07:04 PM 77.5°F25.3°C 63.9°F17.7°C 63% 2.9 mph SE4.7 kmh SE 8.0 mph12.9 kmh 29.88 in1011.9 mb 0.00 in0.0 mm 0.00 in0.0 mm 0.00 in0.0 mm
07:09 PM 77.4°F25.2°C 64.5°F18.1°C 64% 2.9 mph SE4.7 kmh SE 9.0 mph14.5 kmh 29.88 in1011.9 mb 0.00 in0.0 mm 0.00 in0.0 mm 0.00 in0.0 mm
07:14 PM 77.3°F25.2°C 64.4°F18.0°C 64% 4.2 mph SE6.8 kmh SE 10.0 mph16.1 kmh 29.87 in1011.5 mb 0.00 in0.0 mm 0.00 in0.0 mm 0.00 in0.0 mm
07:19 PM 77.2°F25.1°C 64.8°F18.2°C 65% 3.7 mph SE6.0 kmh SE 10.0 mph16.1 kmh 29.87 in1011.5 mb 0.00 in0.0 mm 0.00 in0.0 mm 0.00 in0.0 mm
07:24 PM 77.1°F25.1°C 64.7°F18.2°C 65% 3.6 mph SE5.8 kmh SE 10.0 mph16.1 kmh 29.87 in1011.5 mb 0.00 in0.0 mm 0.00 in0.0 mm 0.00 in0.0 mm
07:29 PM 76.9°F24.9°C 64.7°F18.2°C 66% 2.7 mph SE4.3 kmh SE 10.0 mph16.1 kmh 29.87 in1011.5 mb 0.00 in0.0 mm 0.00 in0.0 mm 0.00 in0.0 mm
07:34 PM 76.8°F24.9°C 64.8°F18.2°C 66% 3.6 mph SE5.8 kmh SE 10.0 mph16.1 kmh 29.87 in1011.5 mb 0.00 in0.0 mm 0.00 in0.0 mm 0.00 in0.0 mm
07:39 PM 76.7°F24.8°C 65.1°F18.4°C 67% 3.4 mph ESE5.5 kmh ESE 9.0 mph14.5 kmh 29.88 in1011.9 mb 0.00 in0.0 mm 0.00 in0.0 mm 0.00 in0.0 mm
07:44 PM 76.6°F24.8°C 65.0°F18.3°C 67% 4.2 mph ESE6.8 kmh ESE 9.0 mph14.5 kmh 29.88 in1011.9 mb 0.00 in0.0 mm 0.00 in0.0 mm 0.00 in0.0 mm
07:49 PM 76.5°F24.7°C 65.4°F18.6°C 68% 2.7 mph SE4.3 kmh SE 9.0 mph14.5 kmh 29.88 in1011.9 mb 0.00 in0.0 mm 0.00 in0.0 mm 0.00 in0.0 mm
07:54 PM 76.4°F24.7°C 65.7°F18.7°C 69% 3.9 mph SE6.3 kmh SE 9.0 mph14.5 kmh 29.88 in1011.9 mb 0.00 in0.0 mm 0.00 in0.0 mm 0.00 in0.0 mm
07:59 PM 76.1°F24.5°C 65.4°F18.6°C 69% 3.7 mph ESE6.0 kmh ESE 9.0 mph14.5 kmh 29.88 in1011.9 mb 0.00 in0.0 mm 0.00 in0.0 mm 0.00 in0.0 mm
08:04 PM 76.0°F24.4°C 65.7°F18.7°C 70% 3.2 mph SE5.1 kmh SE 9.0 mph14.5 kmh 29.88 in1011.9 mb 0.00 in0.0 mm 0.00 in0.0 mm 0.00 in0.0 mm
08:09 PM 75.8°F24.3°C 65.9°F18.8°C 71% 2.6 mph SE4.2 kmh SE 8.0 mph12.9 kmh 29.89 in1012.2 mb 0.00 in0.0 mm 0.00 in0.0 mm 0.00 in0.0 mm
08:14 PM 75.6°F24.2°C 66.1°F18.9°C 72% 2.1 mph SE3.4 kmh SE 8.0 mph12.9 kmh 29.88 in1011.9 mb 0.00 in0.0 mm 0.00 in0.0 mm 0.00 in0.0 mm
08:19 PM 75.4°F24.1°C 66.3°F19.1°C 73% 2.7 mph ESE4.3 kmh ESE 8.0 mph12.9 kmh 29.89 in1012.2 mb 0.00 in0.0 mm 0.00 in0.0 mm 0.00 in0.0 mm
08:24 PM 75.2°F24.0°C 66.5°F19.2°C 74% 2.0 mph SE3.2 kmh SE 8.0 mph12.9 kmh 29.89 in1012.2 mb 0.00 in0.0 mm 0.00 in0.0 mm 0.00 in0.0 mm
08:29 PM 75.2°F24.0°C 66.3°F19.1°C 74% 3.4 mph ESE5.5 kmh ESE 8.0 mph12.9 kmh 29.89 in1012.2 mb 0.00 in0.0 mm 0.00 in0.0 mm 0.00 in0.0 mm
08:34 PM 75.1°F23.9°C 66.8°F19.3°C 75% 2.0 mph ESE3.2 kmh ESE 8.0 mph12.9 kmh 29.89 in1012.2 mb 0.00 in0.0 mm 0.00 in0.0 mm 0.00 in0.0 mm
08:39 PM 75.1°F23.9°C 66.8°F19.3°C 75% 2.8 mph ESE4.5 kmh ESE 8.0 mph12.9 kmh 29.89 in1012.2 mb 0.00 in0.0 mm 0.00 in0.0 mm 0.00 in0.0 mm
08:44 PM 75.0°F23.9°C 67.1°F19.5°C 76% 3.2 mph E5.1 kmh E 8.0 mph12.9 kmh 29.89 in1012.2 mb 0.00 in0.0 mm 0.00 in0.0 mm 0.00 in0.0 mm
08:49 PM 74.9°F23.8°C 67.0°F19.4°C 76% 4.3 mph E6.9 kmh E 10.0 mph16.1 kmh 29.89 in1012.2 mb 0.00 in0.0 mm 0.00 in0.0 mm 0.00 in0.0 mm
08:54 PM 74.8°F23.8°C 67.2°F19.6°C 77% 4.3 mph ESE6.9 kmh ESE 10.0 mph16.1 kmh 29.88 in1011.9 mb 0.00 in0.0 mm 0.00 in0.0 mm 0.00 in0.0 mm
08:59 PM 74.7°F23.7°C 67.1°F19.5°C 77% 4.2 mph ESE6.8 kmh ESE 10.0 mph16.1 kmh 29.88 in1011.9 mb 0.00 in0.0 mm 0.00 in0.0 mm 0.00 in0.0 mm
09:04 PM 74.4°F23.6°C 67.2°F19.6°C 78% 3.4 mph SE5.5 kmh SE 10.0 mph16.1 kmh 29.89 in1012.2 mb 0.00 in0.0 mm 0.00 in0.0 mm 0.00 in0.0 mm
09:09 PM 74.3°F23.5°C 67.5°F19.7°C 79% 4.9 mph SE7.9 kmh SE 12.0 mph19.3 kmh 29.89 in1012.2 mb 0.00 in0.0 mm 0.00 in0.0 mm 0.00 in0.0 mm
09:14 PM 74.2°F23.4°C 67.4°F19.7°C 79% 3.9 mph SE6.3 kmh SE 12.0 mph19.3 kmh 29.89 in1012.2 mb 0.00 in0.0 mm 0.00 in0.0 mm 0.00 in0.0 mm
09:19 PM 74.1°F23.4°C 67.3°F19.6°C 79% 3.6 mph SE5.8 kmh SE 12.0 mph19.3 kmh 29.88 in1011.9 mb 0.00 in0.0 mm 0.00 in0.0 mm 0.00 in0.0 mm
09:24 PM 74.0°F23.3°C 67.4°F19.7°C 80% 2.7 mph SE4.3 kmh SE 12.0 mph19.3 kmh 29.88 in1011.9 mb 0.00 in0.0 mm 0.00 in0.0 mm 0.00 in0.0 mm
09:29 PM 73.9°F23.3°C 67.3°F19.6°C 80% 3.3 mph SE5.3 kmh SE 8.0 mph12.9 kmh 29.88 in1011.9 mb 0.00 in0.0 mm 0.00 in0.0 mm 0.00 in0.0 mm
09:34 PM 73.8°F23.2°C 67.2°F19.6°C 80% 3.7 mph SE6.0 kmh SE 8.0 mph12.9 kmh 29.88 in1011.9 mb 0.00 in0.0 mm 0.00 in0.0 mm 0.00 in0.0 mm
09:39 PM 73.8°F23.2°C 67.6°F19.8°C 81% 3.4 mph SE5.5 kmh SE 8.0 mph12.9 kmh 29.88 in1011.9 mb 0.00 in0.0 mm 0.00 in0.0 mm 0.00 in0.0 mm
09:44 PM 73.7°F23.2°C 67.5°F19.7°C 81% 4.0 mph SE6.4 kmh SE 10.0 mph16.1 kmh 29.87 in1011.5 mb 0.00 in0.0 mm 0.00 in0.0 mm 0.00 in0.0 mm
09:49 PM 73.7°F23.2°C 67.5°F19.7°C 81% 2.6 mph SE4.2 kmh SE 10.0 mph16.1 kmh 29.87 in1011.5 mb 0.00 in0.0 mm 0.00 in0.0 mm 0.00 in0.0 mm
09:54 PM 73.5°F23.1°C 67.7°F19.8°C 82% 5.5 mph SE8.9 kmh SE 10.0 mph16.1 kmh 29.86 in1011.2 mb 0.00 in0.0 mm 0.00 in0.0 mm 0.00 in0.0 mm
09:59 PM 73.4°F23.0°C 67.6°F19.8°C 82% 4.1 mph SE6.6 kmh SE 10.0 mph16.1 kmh 29.86 in1011.2 mb 0.00 in0.0 mm 0.00 in0.0 mm 0.00 in0.0 mm
10:04 PM 73.4°F23.0°C 67.6°F19.8°C 82% 4.6 mph SE7.4 kmh SE 11.0 mph17.7 kmh 29.86 in1011.2 mb 0.00 in0.0 mm 0.00 in0.0 mm 0.00 in0.0 mm
10:09 PM 73.3°F22.9°C 67.5°F19.7°C 82% 3.9 mph SE6.3 kmh SE 11.0 mph17.7 kmh 29.86 in1011.2 mb 0.00 in0.0 mm 0.00 in0.0 mm 0.00 in0.0 mm
10:14 PM 73.2°F22.9°C 67.8°F19.9°C 83% 3.9 mph SE6.3 kmh SE 11.0 mph17.7 kmh 29.86 in1011.2 mb 0.00 in0.0 mm 0.00 in0.0 mm 0.00 in0.0 mm
10:19 PM 73.1°F22.8°C 67.7°F19.8°C 83% 3.2 mph SE5.1 kmh SE 11.0 mph17.7 kmh 29.86 in1011.2 mb 0.00 in0.0 mm 0.00 in0.0 mm 0.00 in0.0 mm
10:24 PM 73.1°F22.8°C 67.7°F19.8°C 83% 4.2 mph SE6.8 kmh SE 10.0 mph16.1 kmh 29.85 in1010.8 mb 0.00 in0.0 mm 0.00 in0.0 mm 0.00 in0.0 mm
10:29 PM 73.1°F22.8°C 68.0°F20.0°C 84% 6.0 mph SE9.7 kmh SE 13.0 mph20.9 kmh 29.85 in1010.8 mb 0.00 in0.0 mm 0.00 in0.0 mm 0.00 in0.0 mm
10:34 PM 73.1°F22.8°C 68.0°F20.0°C 84% 4.1 mph SE6.6 kmh SE 13.0 mph20.9 kmh 29.86 in1011.2 mb 0.00 in0.0 mm 0.00 in0.0 mm 0.00 in0.0 mm
10:39 PM 73.0°F22.8°C 67.9°F19.9°C 84% 4.3 mph SE6.9 kmh SE 13.0 mph20.9 kmh 29.86 in1011.2 mb 0.00 in0.0 mm 0.00 in0.0 mm 0.00 in0.0 mm
10:44 PM 73.0°F22.8°C 67.9°F19.9°C 84% 3.0 mph SE4.8 kmh SE 13.0 mph20.9 kmh 29.86 in1011.2 mb 0.00 in0.0 mm 0.00 in0.0 mm 0.00 in0.0 mm
10:49 PM 73.0°F22.8°C 68.3°F20.2°C 85% 3.0 mph SE4.8 kmh SE 9.0 mph14.5 kmh 29.87 in1011.5 mb 0.00 in0.0 mm 0.00 in0.0 mm 0.00 in0.0 mm
10:54 PM 72.9°F22.7°C 68.2°F20.1°C 85% 2.4 mph SE3.9 kmh SE 10.0 mph16.1 kmh 29.87 in1011.5 mb 0.00 in0.0 mm 0.00 in0.0 mm 0.00 in0.0 mm
10:59 PM 72.9°F22.7°C 68.2°F20.1°C 85% 3.1 mph SE5.0 kmh SE 10.0 mph16.1 kmh 29.87 in1011.5 mb 0.00 in0.0 mm 0.00 in0.0 mm 0.00 in0.0 mm
11:04 PM 72.8°F22.7°C 68.1°F20.1°C 85% 2.0 mph SSE3.2 kmh SSE 10.0 mph16.1 kmh 29.87 in1011.5 mb 0.00 in0.0 mm 0.00 in0.0 mm 0.00 in0.0 mm
11:09 PM 72.7°F22.6°C 68.3°F20.2°C 86% 2.3 mph SSE3.7 kmh SSE 10.0 mph16.1 kmh 29.87 in1011.5 mb 0.00 in0.0 mm 0.00 in0.0 mm 0.00 in0.0 mm
11:14 PM 72.7°F22.6°C 68.3°F20.2°C 86% 3.5 mph SE5.6 kmh SE 11.0 mph17.7 kmh 29.87 in1011.5 mb 0.00 in0.0 mm 0.00 in0.0 mm 0.00 in0.0 mm
11:19 PM 72.6°F22.6°C 68.2°F20.1°C 86% 3.7 mph SSE6.0 kmh SSE 11.0 mph17.7 kmh 29.87 in1011.5 mb 0.00 in0.0 mm 0.00 in0.0 mm 0.00 in0.0 mm
11:24 PM 72.5°F22.5°C 68.1°F20.1°C 86% 2.6 mph SSE4.2 kmh SSE 11.0 mph17.7 kmh 29.87 in1011.5 mb 0.00 in0.0 mm 0.00 in0.0 mm 0.00 in0.0 mm
11:29 PM 72.4°F22.4°C 68.3°F20.2°C 87% 2.7 mph SE4.3 kmh SE 11.0 mph17.7 kmh 29.87 in1011.5 mb 0.00 in0.0 mm 0.00 in0.0 mm 0.00 in0.0 mm
11:34 PM 72.3°F22.4°C 68.2°F20.1°C 87% 3.5 mph SE5.6 kmh SE 9.0 mph14.5 kmh 29.87 in1011.5 mb 0.00 in0.0 mm 0.00 in0.0 mm 0.00 in0.0 mm
11:39 PM 72.3°F22.4°C 68.2°F20.1°C 87% 2.0 mph SE3.2 kmh SE 9.0 mph14.5 kmh 29.87 in1011.5 mb 0.00 in0.0 mm 0.00 in0.0 mm 0.00 in0.0 mm
11:44 PM 72.2°F22.3°C 68.4°F20.2°C 88% 2.4 mph SE3.9 kmh SE 9.0 mph14.5 kmh 29.86 in1011.2 mb 0.00 in0.0 mm 0.00 in0.0 mm 0.00 in0.0 mm
11:49 PM 72.0°F22.2°C 68.2°F20.1°C 88% 3.8 mph SE6.1 kmh SE 9.0 mph14.5 kmh 29.86 in1011.2 mb 0.00 in0.0 mm 0.00 in0.0 mm 0.00 in0.0 mm
11:54 PM 71.9°F22.2°C 68.2°F20.1°C 88% 2.8 mph SE4.5 kmh SE 9.0 mph14.5 kmh 29.86 in1011.2 mb 0.00 in0.0 mm 0.00 in0.0 mm 0.00 in0.0 mm
11:59 PM 71.9°F22.2°C 68.2°F20.1°C 88% 3.5 mph SE5.6 kmh SE 9.0 mph14.5 kmh 29.86 in1011.2 mb 0.00 in0.0 mm 0.00 in0.0 mm 0.00 in0.0 mm